Aviation Digital Data Service (ADDS)

Output produced by METARs form (1210 UTC 26 March 2019)
found at http://www.aviationweather.gov/metar/data/
 
EHKD 261155Z AUTO 29011KT 250V320 9999 OVC050 08/05 Q1031 BLU 28012KT 9999 BKN040
TAF EHKD 260929Z 2610/2622 30012KT 9999 BKN035 
     BECMG 2618/2620 32008KT 
     PROB30 2618/2622 SCT010 BKN015
       
EHDL 261155Z AUTO 30008KT 260V360 9999 FEW027 OVC030 08/02 Q1031 BLU
EHGG 261155Z AUTO 30014KT 270V330 9999 SCT018 BKN023 BKN028 09/04 Q1029 NOSIG
TAF EHGG 261118Z 2612/2718 31014KT 9999 BKN030 
     PROB30 2618/2622 BKN012 
     BECMG 2621/2624 27005KT 7000 
     PROB30 2700/2706 3000 BR 
     BECMG 2706/2709 9999 NSW
       
EHEH 261155Z AUTO 31008KT 240V330 9999 BKN042/// OVC046/// 09/02 Q1032 BLU 31009KT 9999 SCT030 BKN045
TAF EHEH 261057Z 2612/2718 31008KT 9999 SCT030 
     BECMG 2622/2624 VRB03KT 4000 BR 
     PROB40 2700/2707 0800 FG BKN001 
     PROB40 2707/2709 3000 BR BKN010 
     BECMG 2707/2709 9999 NSW
       
EHGR 261155Z AUTO 28009KT 250V320 9999 FEW027 BKN045 OVC049 09/04 Q1032 BLU 30010KT 9999 SCT025 BKN035
TAF EHGR 260922Z 2610/2622 30009KT 9999 SCT023 BKN050
       
EHLW 261155Z AUTO 30014KT 260V320 9999 OVC045 09/05 Q1030 BLU 31013KT 9999 FEW017 BKN043
TAF EHLW 260933Z 2610/2622 30018KT 9999 FEW018 BKN035 
     BECMG 2618/2620 32008KT 
     PROB30 2618/2622 SCT010 BKN015
       
EHBK 261155Z AUTO 30005KT 250V360 9999 FEW027 OVC049 08/02 Q1032 NOSIG
TAF EHBK 261118Z 2612/2718 31008KT 9999 BKN030 
     BECMG 2623/2702 7000 BKN012 
     PROB40 2701/2709 3000 BR BKN006 
     BECMG 2707/2710 9999 BKN020
       
EHRD 261155Z AUTO 27009KT 240V310 9999 FEW026 10/04 Q1032 NOSIG
TAF EHRD 261119Z 2612/2718 29013KT 9999 SCT020 BKN045 
     BECMG 2617/2620 30005KT 
     PROB30 2700/2707 VRB03KT 1500 BR MIFG NSC 
     BECMG 2707/2710 29010KT
       
EHAM 261155Z 29011KT 260V320 9999 FEW023 BKN049 10/03 Q1032 NOSIG
TAF EHAM 261119Z 2612/2718 29013KT 9999 SCT020 BKN045 
     BECMG 2617/2620 30005KT 
     PROB40 
     TEMPO 2618/2702 BKN017 
     PROB30 2700/2707 VRB03KT 2000 BR MIFG NSC 
     BECMG 2707/2710 29010KT
       
EHVK 261155Z AUTO 30008KT 270V350 9999 FEW026 SCT040 OVC045 09/03 Q1031 BLU 30005KT 9999 SCT020 SCT025 BKN045 BECMG 31005G15KT
TAF EHVK 260922Z 2610/2622 30008KT 9999 SCT021 BKN050
       
EHWO 261155Z AUTO 29009KT 250V330 9999 BKN036 OVC048 10/04 Q1032 BLU 30009KT 9999 FEW022 SCT045
TAF EHWO 260921Z 2610/2622 29008KT 9999 SCT018 BKN050 
     BECMG 2610/2612 SCT030 
     PROB40 2621/2622 4000 BR